Time;durP1;ratioP1;P1;durP2;ratioP2;P2;SDS_P1;SDS_P2;PMS_P1;PMS_P2;Temp;Humidity;BMP_temperature;BMP_pressure;BME280_temperature;BME280_humidity;BME280_pressure;Samples;Min_cycle;Max_cycle;Signal;HPM_P1;HPM_P2
2022/06/30 00:01:33;;;;;;;16.77;10.40;;;;;;;;;;5050840;28;20539;-51
2022/06/30 00:03:59;;;;;;;16.02;9.38;;;;;;;;;;5050997;28;20036;-50
2022/06/30 00:06:26;;;;;;;12.18;8.77;;;;;;;;;;5051176;28;20029;-51
2022/06/30 00:08:52;;;;;;;9.60;8.43;;;;;;;;;;5050807;28;20104;-50
2022/06/30 00:11:18;;;;;;;13.75;9.45;;;;;;;;;;5051181;28;20523;-51
2022/06/30 00:13:44;;;;;;;12.48;7.78;;;;;;;;;;5051024;28;20194;-52
2022/06/30 00:16:11;;;;;;;12.65;9.13;;;;;;;;;;5050807;28;20428;-51
2022/06/30 00:18:37;;;;;;;12.20;8.98;;;;;;;;;;5032817;28;20032;-51
2022/06/30 00:21:03;;;;;;;16.55;7.85;;;;;;;;;;5050515;28;20057;-51
2022/06/30 00:23:30;;;;;;;11.25;7.20;;;;;;;;;;5050986;28;20037;-51
2022/06/30 00:25:56;;;;;;;11.63;7.47;;;;;;;;;;5050992;28;20375;-53
2022/06/30 00:28:22;;;;;;;13.13;7.47;;;;;;;;;;5050663;28;20474;-51
2022/06/30 00:30:49;;;;;;;11.60;6.30;;;27.70;61.40;;;;;;5050549;28;20025;-50
2022/06/30 00:33:16;;;;;;;12.23;6.20;;;26.40;63.30;;;;;;5045808;28;20056;-51
2022/06/30 00:35:42;;;;;;;11.48;7.30;;;;;;;;;;5050777;28;20072;-51
2022/06/30 00:38:08;;;;;;;14.38;7.15;;;;;;;;;;5050673;28;20063;-51
2022/06/30 00:40:38;;;;;;;10.68;5.13;;;;;;;;;;5050716;28;20432;-51
2022/06/30 00:43:04;;;;;;;10.57;6.38;;;;;;;;;;5050427;28;20432;-51
2022/06/30 00:45:31;;;;;;;10.10;5.65;;;;;;;;;;5051018;28;20029;-51
2022/06/30 00:47:57;;;;;;;11.68;6.13;;;;;;;;;;5050453;28;20064;-51
2022/06/30 00:50:23;;;;;;;7.53;5.90;;;;;;;;;;5053734;28;20086;-52
2022/06/30 00:52:52;;;;;;;11.07;6.57;;;;;;;;;;5054339;28;20029;-52
2022/06/30 00:55:20;;;;;;;9.93;5.90;;;;;;;;;;5054580;28;20017;-51
2022/06/30 00:57:46;;;;;;;11.43;5.63;;;;;;;;;;5053815;28;20056;-50
2022/06/30 01:00:13;;;;;;;14.63;6.57;;;;;;;;;;5053471;28;20078;-51
2022/06/30 01:02:39;;;;;;;;;;;;;;;;;;5053955;28;20055;-51
2022/06/30 01:05:06;;;;;;;13.98;5.85;;;;;;;;;;5053783;28;20393;-51
2022/06/30 01:07:33;;;;;;;11.20;6.13;;;;;;;;;;5053562;28;20086;-51
2022/06/30 01:12:44;;;;;;;14.18;5.93;;;;;;;;;;5073053;28;20552;-51
2022/06/30 01:15:12;;;;;;;8.52;4.75;;;;;;;;;;5054026;28;20100;-51
2022/06/30 01:17:38;;;;;;;7.43;5.30;;;;;;;;;;5053746;28;20032;-52
2022/06/30 01:20:04;;;;;;;11.23;5.60;;;;;;;;;;5053931;28;20130;-50
2022/06/30 01:22:30;;;;;;;10.10;5.43;;;;;;;;;;5053939;28;20255;-50
2022/06/30 01:24:56;;;;;;;7.38;4.93;;;;;;;;;;5055247;28;20112;-51
2022/06/30 01:27:22;;;;;;;10.82;4.95;;;;;;;;;;5073756;28;20082;-51
2022/06/30 01:29:50;;;;;;;7.43;5.75;;;;;;;;;;5073502;28;20020;-51
2022/06/30 01:32:17;;;;;;;7.45;5.97;;;;;;;;;;5073734;28;20108;-49
2022/06/30 01:34:43;;;;;;;12.95;5.18;;;;;;;;;;5073656;28;20043;-51
2022/06/30 01:37:10;;;;;;;9.50;5.15;;;;;;;;;;5073606;28;20489;-51
2022/06/30 01:39:36;;;;;;;10.82;5.80;;;;;;;;;;5064517;28;20098;-51
2022/06/30 01:42:02;;;;;;;7.68;5.70;;;;;;;;;;5053152;28;20087;-51
2022/06/30 01:44:28;;;;;;;7.03;4.95;;;;;;;;;;5053508;28;20033;-51
2022/06/30 01:46:54;;;;;;;10.25;5.95;;;;;;;;;;5053107;28;20029;-50
2022/06/30 01:49:21;;;;;;;8.40;5.33;;;;;;;;;;5052666;28;20029;-50
2022/06/30 01:51:47;;;;;;;11.68;5.55;;;;;;;;;;5053224;28;20271;-50
2022/06/30 01:54:13;;;;;;;14.65;4.93;;;;;;;;;;5053248;28;20025;-51
2022/06/30 01:56:39;;;;;;;9.05;5.18;;;;;;;;;;5052667;28;20037;-50
2022/06/30 01:59:05;;;;;;;6.13;5.07;;;;;;;;;;5052500;28;20033;-51
2022/06/30 02:01:32;;;;;;;7.90;4.97;;;;;;;;;;5028215;28;20120;-51
2022/06/30 02:04:46;;;;;;;12.75;5.03;;;;;;;;;;5052561;28;20033;-50
2022/06/30 02:06:47;;;;;;;9.40;5.85;;;;;;;;;;5052123;28;20559;-49
2022/06/30 02:09:14;;;;;;;7.97;5.00;;;;;;;;;;5052411;28;20025;-50
2022/06/30 02:11:40;;;;;;;8.32;5.03;;;;;;;;;;5034819;28;20040;-50
2022/06/30 02:14:06;;;;;;;7.22;5.47;;;;;;;;;;5052573;28;20470;-51
2022/06/30 02:16:32;;;;;;;8.27;4.95;;;26.30;63.40;;;;;;5052808;28;20060;-51
2022/06/30 02:18:58;;;;;;;9.37;5.90;;;24.90;65.90;;;;;;5052524;28;20056;-51
2022/06/30 02:21:24;;;;;;;8.70;5.50;;;24.70;65.90;;;;;;5052175;28;20223;-50
2022/06/30 02:23:51;;;;;;;10.00;6.17;;;24.70;66.00;;;;;;5052238;28;20024;-50
2022/06/30 02:26:18;;;;;;;12.13;5.63;;;24.60;66.10;;;;;;5052274;28;20032;-50
2022/06/30 02:28:43;;;;;;;8.35;5.68;;;24.50;66.20;;;;;;5052108;28;20028;-48
2022/06/30 02:31:12;;;;;;;10.73;6.23;;;24.40;66.50;;;;;;5052363;28;20051;-49
2022/06/30 02:33:38;;;;;;;11.65;6.47;;;24.30;66.80;;;;;;5052437;28;20108;-48
2022/06/30 02:36:05;;;;;;;7.85;5.65;;;24.30;66.90;;;;;;5052286;28;20039;-49
2022/06/30 02:38:30;;;;;;;8.32;5.97;;;24.30;66.90;;;;;;5051516;28;20138;-50
2022/06/30 02:40:56;;;;;;;10.80;5.87;;;24.40;67.00;;;;;;5051594;28;20466;-50
2022/06/30 02:43:22;;;;;;;8.27;6.43;;;24.30;66.90;;;;;;5052355;28;20033;-50
2022/06/30 02:45:47;;;;;;;10.53;6.43;;;24.30;67.10;;;;;;5052199;28;20108;-49
2022/06/30 02:48:13;;;;;;;8.73;6.37;;;24.30;67.40;;;;;;5051842;28;20033;-49
2022/06/30 02:50:39;;;;;;;10.30;5.73;;;24.30;67.40;;;;;;5033514;28;20040;-50
2022/06/30 02:53:05;;;;;;;12.40;6.20;;;24.30;67.30;;;;;;5033178;28;20116;-48
2022/06/30 02:55:31;;;;;;;10.32;6.45;;;24.30;67.20;;;;;;5050506;28;20216;-50
2022/06/30 02:57:57;;;;;;;7.20;6.00;;;24.30;67.20;;;;;;5051963;28;20032;-51
2022/06/30 03:00:23;;;;;;;9.77;6.17;;;24.30;67.30;;;;;;5051236;28;20500;-50
2022/06/30 03:02:49;;;;;;;9.95;7.00;;;24.20;67.40;;;;;;5052253;28;20497;-49
2022/06/30 03:05:15;;;;;;;12.13;6.77;;;24.20;67.60;;;;;;5051508;28;20033;-51
2022/06/30 03:07:41;;;;;;;12.47;6.17;;;24.30;67.50;;;;;;5051324;28;20036;-50
2022/06/30 03:10:07;;;;;;;13.53;6.53;;;24.30;67.60;;;;;;5051549;28;20037;-49
2022/06/30 03:12:33;;;;;;;10.50;6.57;;;24.30;67.50;;;;;;5050664;28;20029;-49
2022/06/30 03:14:59;;;;;;;10.60;7.43;;;24.30;67.30;;;;;;5064496;28;20093;-49
2022/06/30 03:17:25;;;;;;;13.43;7.93;;;24.30;67.40;;;;;;5071762;28;20489;-50
2022/06/30 03:19:51;;;;;;;14.40;7.73;;;24.30;67.20;;;;;;5052381;28;20051;-51
2022/06/30 03:22:17;;;;;;;12.30;7.23;;;24.30;67.30;;;;;;5051510;28;20743;-50
2022/06/30 03:24:42;;;;;;;14.13;7.37;;;24.30;67.20;;;;;;5051876;28;20040;-50
2022/06/30 03:27:08;;;;;;;13.17;7.13;;;24.20;67.20;;;;;;5051575;28;20032;-49
2022/06/30 03:29:34;;;;;;;11.23;7.40;;;24.20;67.30;;;;;;5051363;28;20485;-50
2022/06/30 03:31:59;;;;;;;8.90;6.73;;;24.10;67.50;;;;;;5051411;28;20033;-49
2022/06/30 03:34:25;;;;;;;9.90;6.87;;;24.10;67.70;;;;;;5051728;28;20416;-50
2022/06/30 03:36:51;;;;;;;11.87;6.20;;;24.10;68.00;;;;;;5051709;28;20029;-50
2022/06/30 03:39:16;;;;;;;11.00;7.20;;;24.10;68.00;;;;;;5051355;28;20029;-50
2022/06/30 03:41:42;;;;;;;9.63;7.03;;;24.10;67.80;;;;;;5050894;28;20068;-49
2022/06/30 03:44:08;;;;;;;15.03;7.13;;;24.20;67.70;;;;;;5051508;28;20039;-50
2022/06/30 03:46:33;;;;;;;9.67;6.67;;;24.20;67.70;;;;;;5051383;28;20036;-50
2022/06/30 03:48:59;;;;;;;16.40;7.23;;;24.10;68.00;;;;;;5051076;28;20477;-50
2022/06/30 03:51:25;;;;;;;12.30;7.37;;;24.10;68.10;;;;;;5033197;28;20029;-50
2022/06/30 03:53:53;;;;;;;11.83;7.63;;;24.00;67.90;;;;;;5051038;28;20033;-50
2022/06/30 03:56:19;;;;;;;12.15;7.38;;;24.00;68.00;;;;;;5050890;28;20033;-50
2022/06/30 03:58:45;;;;;;;11.80;7.90;;;23.90;68.30;;;;;;5050567;28;20436;-50
2022/06/30 04:01:10;;;;;;;8.70;7.60;;;23.80;68.40;;;;;;5049215;28;20043;-50
2022/06/30 04:03:36;;;;;;;12.37;7.43;;;23.90;68.50;;;;;;5033539;28;20029;-50
2022/06/30 04:06:02;;;;;;;9.63;6.80;;;23.90;68.70;;;;;;5032478;28;20025;-50
2022/06/30 04:08:28;;;;;;;10.77;8.27;;;23.80;68.60;;;;;;5050884;28;20574;-50
2022/06/30 04:10:54;;;;;;;13.27;7.00;;;23.90;68.60;;;;;;5051396;28;20025;-50
2022/06/30 04:13:19;;;;;;;11.67;7.80;;;23.90;68.60;;;;;;5051462;28;20031;-51
2022/06/30 04:15:45;;;;;;;9.53;8.03;;;23.80;68.60;;;;;;5051320;28;20346;-50
2022/06/30 04:18:12;;;;;;;13.40;8.20;;;23.80;68.90;;;;;;5051165;28;20025;-50
2022/06/30 04:20:38;;;;;;;10.63;8.95;;;23.70;69.40;;;;;;5051168;28;20025;-52
2022/06/30 04:23:03;;;;;;;11.20;8.30;;;23.60;69.70;;;;;;5051185;28;20029;-50
2022/06/30 04:25:29;;;;;;;10.77;8.30;;;23.40;70.30;;;;;;5055046;28;20512;-50
2022/06/30 04:27:58;;;;;;;11.53;9.03;;;;;;;;;;5037078;28;20502;-52
2022/06/30 04:33:08;;;;;;;17.85;10.10;;;;;;;;;;5055021;28;20520;-51
2022/06/30 04:35:35;;;;;;;12.13;9.30;;;;;;;;;;5054882;28;20398;-52
2022/06/30 04:38:01;;;;;;;16.95;10.35;;;;;;;;;;5054808;28;20017;-50
2022/06/30 04:43:13;;;;;;;17.17;11.38;;;23.20;72.70;;;;;;5055030;28;20408;-49
2022/06/30 04:45:38;;;;;;;14.05;11.23;;;23.40;72.60;;;;;;5054691;28;20611;-52
2022/06/30 04:48:04;;;;;;;22.83;11.63;;;23.50;72.40;;;;;;5036657;28;20112;-50
2022/06/30 04:50:30;;;;;;;18.90;12.63;;;23.60;72.40;;;;;;5054317;28;20025;-52
2022/06/30 04:52:57;;;;;;;23.70;11.88;;;23.50;72.60;;;;;;5054549;28;20048;-50
2022/06/30 04:55:23;;;;;;;19.70;13.10;;;23.40;73.50;;;;;;5054453;28;20021;-50
2022/06/30 04:57:48;;;;;;;18.63;14.07;;;23.30;73.90;;;;;;5054505;28;20025;-51
2022/06/30 05:00:15;;;;;;;17.90;14.17;;;23.30;74.10;;;;;;5054316;28;20028;-50
2022/06/30 05:02:40;;;;;;;23.37;14.30;;;23.30;73.90;;;;;;5054446;28;20432;-50
2022/06/30 05:05:06;;;;;;;21.97;14.77;;;23.40;73.80;;;;;;5054322;28;20265;-50
2022/06/30 05:07:32;;;;;;;35.50;15.73;;;23.50;73.80;;;;;;5054103;28;20031;-50
2022/06/30 05:09:58;;;;;;;25.03;17.87;;;23.60;73.50;;;;;;5054054;28;20033;-50
2022/06/30 05:12:24;;;;;;;24.23;18.67;;;23.70;73.50;;;;;;5054280;28;20021;-50
2022/06/30 05:14:50;;;;;;;27.33;19.73;;;23.80;73.50;;;;;;5054174;28;20056;-50
2022/06/30 05:17:15;;;;;;;21.93;19.60;;;23.80;73.20;;;;;;5053950;28;20024;-50
2022/06/30 05:19:41;;;;;;;26.80;21.37;;;23.90;73.40;;;;;;5053934;28;20086;-52
2022/06/30 05:22:07;;;;;;;23.70;19.90;;;24.00;73.00;;;;;;5054152;28;20074;-50
2022/06/30 05:27:17;;;;;;;27.20;22.38;;;24.10;73.20;;;;;;5053793;28;20086;-51
2022/06/30 05:29:43;;;;;;;23.83;20.40;;;24.20;73.00;;;;;;5053923;28;20028;-51
2022/06/30 05:32:09;;;;;;;28.27;22.60;;;24.20;72.80;;;;;;5035961;28;20485;-51
2022/06/30 05:34:35;;;;;;;31.00;22.45;;;24.20;72.70;;;;;;5053671;28;20422;-51
2022/06/30 05:37:02;;;;;;;25.47;22.43;;;24.20;73.20;;;;;;5053924;28;20104;-51
2022/06/30 05:39:28;;;;;;;;;;;24.30;73.10;;;;;;5054004;28;20029;-53
2022/06/30 05:41:54;;;;;;;32.17;22.83;;;24.40;73.20;;;;;;5035767;28;19909;-51
2022/06/30 05:44:19;;;;;;;27.13;21.90;;;24.40;73.50;;;;;;5053777;28;20029;-52
2022/06/30 05:46:45;;;;;;;30.03;22.10;;;24.50;73.10;;;;;;5053629;28;20033;-51
2022/06/30 05:49:11;;;;;;;28.77;23.37;;;24.60;72.90;;;;;;5053675;28;20493;-51
2022/06/30 05:51:37;;;;;;;35.63;24.60;;;24.70;72.20;;;;;;5035602;28;20036;-51
2022/06/30 05:54:03;;;;;;;32.13;23.30;;;24.70;72.10;;;;;;5053402;28;20052;-51
2022/06/30 05:56:28;;;;;;;28.87;23.13;;;24.80;72.20;;;;;;5053359;28;20025;-51
2022/06/30 05:58:54;;;;;;;32.10;22.97;;;24.90;72.20;;;;;;5053294;28;20025;-51
2022/06/30 06:01:20;;;;;;;27.30;21.80;;;24.90;71.70;;;;;;5053492;28;20029;-50
2022/06/30 06:03:46;;;;;;;27.13;21.07;;;25.00;71.20;;;;;;5035420;28;20447;-51
2022/06/30 06:06:12;;;;;;;30.97;21.03;;;25.10;71.30;;;;;;5053369;28;20488;-51
2022/06/30 06:08:38;;;;;;;25.83;22.57;;;25.00;71.40;;;;;;5052802;28;20025;-52
2022/06/30 06:11:03;;;;;;;33.05;21.33;;;25.10;71.70;;;;;;5053088;28;20474;-51
2022/06/30 06:13:29;;;;;;;28.47;22.27;;;25.20;71.30;;;;;;5053051;28;20040;-51
2022/06/30 06:15:55;;;;;;;30.50;22.70;;;25.30;70.90;;;;;;5035097;28;20049;-51
2022/06/30 06:18:21;;;;;;;31.47;21.00;;;25.40;70.70;;;;;;5052777;28;20021;-51
2022/06/30 06:20:46;;;;;;;27.93;19.70;;;25.30;70.30;;;;;;5052874;28;20033;-52
2022/06/30 06:23:12;;;;;;;25.90;19.40;;;25.40;70.00;;;;;;5052875;28;20067;-51
2022/06/30 06:25:38;;;;;;;25.17;19.17;;;25.40;69.40;;;;;;5052867;28;20029;-52
2022/06/30 06:30:48;;;;;;;26.95;17.35;;;25.40;68.90;;;;;;5052594;28;20031;-50
2022/06/30 06:33:13;;;;;;;25.20;19.03;;;25.60;68.40;;;;;;5052823;28;20021;-51
2022/06/30 06:35:39;;;;;;;26.67;19.27;;;25.70;68.00;;;;;;5052763;28;20452;-53
2022/06/30 06:38:05;;;;;;;23.30;17.50;;;25.70;67.60;;;;;;5052430;28;20099;-52
2022/06/30 06:40:30;;;;;;;22.57;18.50;;;25.80;67.30;;;;;;5052547;28;20051;-51
2022/06/30 06:42:56;;;;;;;22.70;17.33;;;25.90;67.30;;;;;;5052505;28;20029;-51
2022/06/30 06:45:22;;;;;;;26.63;18.27;;;25.90;67.80;;;;;;5052376;28;20032;-51
2022/06/30 06:47:48;;;;;;;24.83;17.40;;;25.90;67.80;;;;;;5051578;28;20104;-52
2022/06/30 06:50:14;;;;;;;21.13;16.73;;;26.00;67.80;;;;;;5052087;28;20060;-50
2022/06/30 06:52:40;;;;;;;22.63;17.02;;;26.10;67.30;;;;;;5052238;28;20259;-51
2022/06/30 06:55:06;;;;;;;23.67;16.33;;;26.20;67.70;;;;;;5052241;28;20082;-52
2022/06/30 06:57:34;;;;;;;19.17;15.15;;;26.30;66.70;;;;;;5052104;28;20074;-51
2022/06/30 07:00:01;;;;;;;22.17;15.43;;;26.40;66.40;;;;;;5052140;28;20108;-50
2022/06/30 07:02:27;;;;;;;;;;;26.40;65.70;;;;;;5052748;28;20013;-52
2022/06/30 07:04:52;;;;;;;19.10;15.32;;;26.50;65.30;;;;;;5052023;28;19995;-51
2022/06/30 07:07:18;;;;;;;27.50;14.80;;;26.60;64.70;;;;;;5051803;28;20051;-49
2022/06/30 07:09:44;;;;;;;20.47;12.57;;;26.70;64.50;;;;;;5051865;28;20394;-51
2022/06/30 07:12:10;;;;;;;20.03;13.80;;;26.70;63.50;;;;;;5051978;28;20029;-51
2022/06/30 07:14:35;;;;;;;23.52;15.90;;;26.80;63.00;;;;;;5051878;28;20075;-51
2022/06/30 07:17:01;;;;;;;23.80;16.53;;;26.80;63.90;;;;;;5034178;28;20020;-50
2022/06/30 07:19:27;;;;;;;23.87;17.37;;;26.80;64.50;;;;;;5051819;28;20033;-51
2022/06/30 07:21:52;;;;;;;25.40;18.10;;;26.90;64.70;;;;;;5033777;28;20375;-50
2022/06/30 07:24:18;;;;;;;26.53;18.13;;;26.90;64.90;;;;;;5051742;28;20025;-50
2022/06/30 07:26:44;;;;;;;27.57;18.97;;;26.90;64.80;;;;;;5051835;28;20433;-50
2022/06/30 07:29:09;;;;;;;25.47;19.20;;;27.00;65.10;;;;;;5051444;28;20029;-51
2022/06/30 07:31:35;;;;;;;28.53;19.20;;;27.00;64.50;;;;;;5051680;28;20021;-51
2022/06/30 07:34:01;;;;;;;27.47;20.93;;;27.00;64.70;;;;;;5051780;28;20501;-52
2022/06/30 07:36:27;;;;;;;52.80;31.20;;;27.50;94.00;;;;;;5051624;28;20409;-52
2022/06/30 07:38:52;;;;;;;31.30;17.87;;;27.20;64.10;;;;;;5051376;28;20477;-55
2022/06/30 07:41:19;;;;;;;29.30;18.93;;;27.30;64.50;;;;;;5051612;28;20032;-53
2022/06/30 07:43:45;;;;;;;29.90;17.52;;;27.30;63.50;;;;;;5051555;28;20475;-56
2022/06/30 07:46:12;;;;;;;28.50;21.13;;;27.30;63.50;;;;;;5051516;28;20400;-56
2022/06/30 07:48:37;;;;;;;;;;;27.40;63.60;;;;;;5051589;28;20496;-53
2022/06/30 07:51:04;;;;;;;26.55;18.75;;;27.40;63.00;;;;;;5051652;28;19908;-58
2022/06/30 07:53:30;;;;;;;28.35;22.67;;;27.40;64.30;;;;;;5033769;28;20075;-55
2022/06/30 07:55:56;;;;;;;24.53;19.67;;;27.50;64.40;;;;;;5051574;28;20048;-55
2022/06/30 07:58:21;;;;;;;34.10;22.07;;;27.60;64.10;;;;;;5053521;28;20033;-56
2022/06/30 08:00:47;;;;;;;33.13;22.13;;;27.60;63.80;;;;;;5055639;28;20017;-57
2022/06/30 08:03:13;;;;;;;28.30;21.73;;;27.70;63.00;;;;;;5055624;28;20036;-57
2022/06/30 08:05:39;;;;;;;24.38;19.40;;;27.70;63.20;;;;;;5055537;28;20055;-56
2022/06/30 08:08:04;;;;;;;28.60;21.97;;;27.80;63.50;;;;;;5055311;28;20044;-58
2022/06/30 08:10:30;;;;;;;25.77;22.07;;;27.80;63.00;;;;;;5055477;28;20401;-58
2022/06/30 08:12:56;;;;;;;32.63;22.93;;;27.80;63.10;;;;;;5055640;28;20056;-55
2022/06/30 08:15:22;;;;;;;27.23;21.38;;;27.80;63.10;;;;;;5055497;28;20017;-57
2022/06/30 08:17:47;;;;;;;36.67;25.70;;;27.90;63.30;;;;;;5055308;28;20029;-58
2022/06/30 08:20:13;;;;;;;28.47;22.97;;;27.90;62.40;;;;;;5055152;28;20029;-57
2022/06/30 08:22:39;;;;;;;30.00;22.10;;;28.00;62.70;;;;;;5055372;28;20339;-57
2022/06/30 08:25:05;;;;;;;32.33;23.73;;;28.00;62.90;;;;;;5055286;28;20032;-56
2022/06/30 08:27:31;;;;;;;32.30;24.85;;;28.10;62.70;;;;;;5055101;28;20132;-56
2022/06/30 08:29:57;;;;;;;40.80;25.50;;;28.10;62.60;;;;;;5054992;28;20529;-54
2022/06/30 08:32:22;;;;;;;39.00;24.13;;;28.20;62.30;;;;;;5037342;28;20017;-56
2022/06/30 08:34:49;;;;;;;36.73;25.80;;;28.20;63.10;;;;;;5055010;28;20077;-57
2022/06/30 08:37:14;;;;;;;31.25;24.52;;;28.30;62.90;;;;;;5054886;28;20028;-55
2022/06/30 08:42:25;;;;;;;38.30;26.95;;;28.30;62.30;;;;;;5055241;28;20072;-58
2022/06/30 08:47:53;;;;;;;32.45;24.38;;;28.20;62.30;;;;;;4962275;28;20139;-56
2022/06/30 08:50:19;;;;;;;31.13;23.57;;;28.20;62.50;;;;;;5037395;28;20045;-57
2022/06/30 08:52:52;;;;;;;31.25;23.67;;;28.30;62.70;;;;;;5055117;28;20021;-57
2022/06/30 08:55:24;;;;;;;36.85;25.35;;;28.50;62.40;;;;;;5054736;28;20052;-56
2022/06/30 08:57:53;;;;;;;32.15;23.50;;;28.70;61.60;;;;;;5054518;28;20438;-57
2022/06/30 09:00:19;;;;;;;31.40;23.40;;;28.80;61.10;;;;;;5054892;28;20075;-56
2022/06/30 09:02:46;;;;;;;28.83;23.50;;;28.80;60.40;;;;;;5054685;28;20509;-57
2022/06/30 09:05:13;;;;;;;31.85;26.85;;;28.90;60.60;;;;;;5054464;28;20025;-57
2022/06/30 09:07:38;;;;;;;31.98;23.50;;;29.00;60.10;;;;;;5054399;28;20025;-57
2022/06/30 09:10:05;;;;;;;36.07;26.43;;;29.00;60.50;;;;;;5053572;28;20021;-56
2022/06/30 09:12:31;;;;;;;;;;;29.10;60.30;;;;;;5054783;28;20255;-56
2022/06/30 09:14:57;;;;;;;36.10;23.35;;;29.10;60.20;;;;;;5054354;28;19905;-57
2022/06/30 09:17:25;;;;;;;33.90;25.42;;;29.20;60.20;;;;;;5054222;28;20032;-54
2022/06/30 09:20:03;;;;;;;32.53;27.75;;;29.40;60.00;;;;;;5036404;28;20028;-57
2022/06/30 09:22:30;;;;;;;;;;;29.40;59.30;;;;;;5054670;28;20029;-57
2022/06/30 09:24:57;;;;;;;33.00;23.00;;;29.30;59.60;;;;;;5036348;28;19912;-57
2022/06/30 09:27:24;;;;;;;32.58;23.92;;;29.30;59.50;;;;;;5053897;28;20114;-54
2022/06/30 09:29:51;;;;;;;28.65;20.15;;;29.50;59.20;;;;;;5053897;28;20056;-57
2022/06/30 09:32:18;;;;;;;24.13;18.50;;;29.60;58.90;;;;;;5053981;28;20404;-57
2022/06/30 09:34:44;;;;;;;24.50;17.83;;;29.70;58.40;;;;;;5053985;28;20053;-57
2022/06/30 09:37:23;;;;;;;27.70;21.02;;;29.80;57.60;;;;;;5053804;28;20033;-57
2022/06/30 09:39:51;;;;;;;25.42;19.63;;;29.90;56.80;;;;;;5053742;28;20037;-57
2022/06/30 09:42:41;;;;;;;31.38;21.35;;;29.90;57.50;;;;;;5053877;28;20108;-57
2022/06/30 09:45:09;;;;;;;25.48;20.27;;;29.90;57.80;;;;;;5053902;28;20028;-57
2022/06/30 09:47:36;;;;;;;19.95;15.85;;;30.00;57.90;;;;;;5053720;28;20033;-57
2022/06/30 09:50:05;;;;;;;25.45;15.05;;;30.10;57.30;;;;;;5053279;28;20036;-57
2022/06/30 09:52:32;;;;;;;31.10;17.50;;;30.20;56.00;;;;;;5035739;28;20017;-57
2022/06/30 09:55:06;;;;;;;34.78;20.27;;;30.30;54.10;;;;;;5053541;28;20021;-57
2022/06/30 09:57:43;;;;;;;29.75;19.17;;;30.30;54.70;;;;;;5053531;28;20013;-55
2022/06/30 10:00:14;;;;;;;20.87;13.40;;;30.40;55.70;;;;;;5053756;28;20393;-58
2022/06/30 10:02:45;;;;;;;17.88;14.43;;;30.40;55.40;;;;;;5035392;28;20029;-57
2022/06/30 10:05:13;;;;;;;24.85;16.42;;;30.40;54.80;;;;;;5053335;28;20021;-58
2022/06/30 10:07:39;;;;;;;25.00;17.75;;;30.50;54.30;;;;;;5053095;28;20028;-56
2022/06/30 10:10:16;;;;;;;27.75;17.02;;;30.60;53.70;;;;;;5053075;28;20481;-55
2022/06/30 10:12:45;;;;;;;;;;;30.60;53.40;;;;;;5051961;28;20378;-58
2022/06/30 10:15:13;;;;;;;19.20;15.60;;;30.50;53.20;;;;;;5052739;28;19905;-57
2022/06/30 10:17:52;;;;;;;23.25;17.77;;;30.50;54.30;;;;;;5054020;28;20017;-58
2022/06/30 10:20:21;;;;;;;17.10;12.68;;;30.60;51.80;;;;;;5051411;28;20037;-57
2022/06/30 10:22:47;;;;;;;17.27;10.45;;;30.60;52.20;;;;;;5060148;28;20028;-57
2022/06/30 10:25:13;;;;;;;24.65;14.70;;;30.70;51.70;;;;;;5059263;28;20040;-57
2022/06/30 10:27:39;;;;;;;17.05;10.68;;;30.80;51.70;;;;;;5051814;28;20032;-57
2022/06/30 10:30:10;;;;;;;16.83;12.43;;;30.90;50.80;;;;;;5052059;28;20036;-58
2022/06/30 10:32:58;;;;;;;27.10;17.38;;;30.90;50.20;;;;;;5034607;28;20029;-57
2022/06/30 10:35:35;;;;;;;21.60;17.23;;;31.10;50.80;;;;;;5052735;28;20075;-56
2022/06/30 10:38:13;;;;;;;26.92;16.02;;;31.10;51.40;;;;;;5052425;28;20104;-58
2022/06/30 10:41:06;;;;;;;20.27;13.23;;;31.10;50.20;;;;;;5051696;28;20082;-57
2022/06/30 10:43:31;;;;;;;24.30;13.60;;;31.10;51.00;;;;;;5050677;28;20029;-57
2022/06/30 10:46:02;;;;;;;22.90;13.90;;;31.20;51.00;;;;;;5052992;28;20481;-58
2022/06/30 10:48:53;;;;;;;18.00;13.35;;;31.20;50.70;;;;;;5051764;28;20397;-57
2022/06/30 10:51:23;;;;;;;21.52;13.30;;;31.40;49.90;;;;;;5052091;28;20191;-54
2022/06/30 10:53:56;;;;;;;20.95;13.32;;;31.30;50.60;;;;;;5051970;28;20021;-57
2022/06/30 10:56:54;;;;;;;14.07;9.98;;;31.40;50.00;;;;;;5052195;28;20025;-57
2022/06/30 10:59:27;;;;;;;29.38;14.32;;;31.50;50.20;;;;;;5051096;28;20045;-55
2022/06/30 11:02:08;;;;;;;18.52;13.55;;;31.70;49.60;;;;;;5049143;28;20027;-58
2022/06/30 11:05:13;;;;;;;20.92;12.10;;;31.70;49.50;;;;;;5049302;28;20041;-56
2022/06/30 11:07:40;;;;;;;14.65;11.52;;;31.90;49.70;;;;;;5011883;28;20120;-57
2022/06/30 11:10:15;;;;;;;17.88;11.85;;;31.90;49.70;;;;;;5071593;28;20033;-57
2022/06/30 11:12:47;;;;;;;16.05;11.18;;;32.10;49.40;;;;;;5061623;28;20017;-57
2022/06/30 11:15:14;;;;;;;17.05;11.82;;;32.10;49.00;;;;;;5033956;28;20121;-56
2022/06/30 11:17:40;;;;;;;18.70;11.23;;;32.10;48.90;;;;;;5051064;28;20017;-58
2022/06/30 11:20:12;;;;;;;19.48;12.63;;;32.20;49.00;;;;;;5050259;28;20040;-55
2022/06/30 11:22:40;;;;;;;18.40;11.52;;;32.30;47.20;;;;;;5051806;28;20043;-55
2022/06/30 11:25:10;;;;;;;21.63;12.63;;;32.30;46.20;;;;;;5063540;28;20039;-58
2022/06/30 11:27:38;;;;;;;16.25;8.77;;;32.20;47.00;;;;;;5051805;28;20025;-57
2022/06/30 11:30:12;;;;;;;18.80;9.10;;;32.20;48.00;;;;;;5051078;28;20033;-58
2022/06/30 11:32:39;;;;;;;18.48;8.10;;;32.40;47.50;;;;;;5050222;28;20025;-58
2022/06/30 11:35:05;;;;;;;9.55;8.27;;;32.50;48.00;;;;;;5051537;28;20033;-57
2022/06/30 11:37:35;;;;;;;11.60;6.97;;;32.70;47.80;;;;;;5051541;28;20021;-58
2022/06/30 11:40:05;;;;;;;22.13;9.80;;;33.00;47.50;;;;;;5051190;28;20108;-57
2022/06/30 11:42:32;;;;;;;11.63;7.47;;;33.20;46.20;;;;;;5051377;28;20040;-55
2022/06/30 11:44:58;;;;;;;15.15;8.40;;;33.30;45.90;;;;;;5051219;28;20040;-58
2022/06/30 11:47:28;;;;;;;14.15;7.22;;;33.30;45.70;;;;;;5051389;28;20028;-58
2022/06/30 11:49:58;;;;;;;17.83;8.25;;;33.50;46.10;;;;;;5051393;28;20025;-58
2022/06/30 11:52:37;;;;;;;12.25;5.50;;;33.60;44.80;;;;;;5051591;28;20052;-58
2022/06/30 11:55:06;;;;;;;10.25;4.70;;;33.70;44.90;;;;;;5051417;28;20081;-57
2022/06/30 11:57:33;;;;;;;36.58;6.85;;;33.70;44.20;;;;;;5050542;28;20025;-57
2022/06/30 12:00:02;;;;;;;11.43;6.82;;;33.80;43.80;;;;;;5051306;28;20609;-57
2022/06/30 12:02:28;;;;;;;18.02;5.93;;;33.80;43.90;;;;;;5051362;28;20104;-58
2022/06/30 12:04:55;;;;;;;;;;;33.80;45.20;;;;;;5051742;28;20032;-57
2022/06/30 12:07:22;;;;;;;10.27;7.15;;;33.90;44.80;;;;;;5033031;28;20003;-58
2022/06/30 12:09:49;;;;;;;14.48;7.00;;;34.00;44.40;;;;;;5051022;28;20044;-57
2022/06/30 12:12:18;;;;;;;10.95;7.40;;;34.10;44.20;;;;;;5050752;28;20367;-57
2022/06/30 12:14:45;;;;;;;11.55;6.70;;;34.20;44.00;;;;;;5013666;28;20033;-57
2022/06/30 12:17:13;;;;;;;9.77;7.35;;;34.20;44.00;;;;;;5019901;28;20017;-58
2022/06/30 12:19:43;;;;;;;10.50;5.82;;;34.30;43.10;;;;;;5051249;28;20033;-55
2022/06/30 12:22:10;;;;;;;11.82;5.88;;;34.30;43.40;;;;;;5051046;28;20087;-57
2022/06/30 12:24:37;;;;;;;;;;;34.30;43.90;;;;;;5051368;28;20128;-57
2022/06/30 12:27:03;;;;;;;12.45;5.43;;;34.40;43.60;;;;;;5050710;28;19945;-58
2022/06/30 12:29:30;;;;;;;12.73;6.18;;;34.40;43.00;;;;;;5050876;28;20548;-57
2022/06/30 12:32:03;;;;;;;;;;;34.50;42.50;;;;;;5051393;28;20074;-56
2022/06/30 12:34:30;;;;;;;13.13;6.70;;;34.40;41.50;;;;;;5050712;28;19909;-56
2022/06/30 12:37:01;;;;;;;23.48;6.25;;;34.30;42.00;;;;;;5032658;28;20490;-56
2022/06/30 12:39:27;;;;;;;12.50;6.05;;;34.20;42.20;;;;;;5050689;28;20037;-58
2022/06/30 12:41:59;;;;;;;;;;;34.00;42.50;;;;;;5051326;28;20025;-57
2022/06/30 12:44:34;;;;;;;9.88;5.25;;;34.00;43.00;;;;;;5051125;28;19905;-55
2022/06/30 12:47:09;;;;;;;11.40;4.70;;;34.20;42.60;;;;;;5054437;28;20151;-54
2022/06/30 12:49:36;;;;;;;12.40;5.50;;;34.30;42.90;;;;;;5053769;28;20028;-56
2022/06/30 12:52:17;;;;;;;13.00;6.35;;;34.50;42.60;;;;;;5054130;28;20782;-57
2022/06/30 12:54:54;;;;;;;10.80;5.13;;;34.60;41.60;;;;;;5054493;28;20418;-57
2022/06/30 12:57:21;;;;;;;14.02;5.70;;;34.70;42.50;;;;;;5054264;28;20401;-57
2022/06/30 12:59:50;;;;;;;8.60;4.57;;;34.80;42.20;;;;;;5054511;28;20099;-57
2022/06/30 13:02:17;;;;;;;8.93;5.60;;;34.90;42.70;;;;;;5054511;28;20422;-58
2022/06/30 13:04:55;;;;;;;15.88;5.05;;;35.00;41.80;;;;;;5054024;28;20393;-57
2022/06/30 13:07:21;;;;;;;16.25;6.07;;;35.20;42.20;;;;;;5053714;28;20028;-57
2022/06/30 13:09:49;;;;;;;15.93;5.60;;;35.10;41.90;;;;;;5054104;28;20107;-57
2022/06/30 13:12:16;;;;;;;17.80;5.65;;;35.20;41.60;;;;;;5054105;28;20064;-57
2022/06/30 13:14:42;;;;;;;12.90;4.70;;;35.40;41.90;;;;;;5053674;28;20508;-56
2022/06/30 13:17:09;;;;;;;8.55;4.10;;;35.50;41.70;;;;;;5053881;28;20100;-56